Gwendolyn Grace — WDA9775 — position and weather

sailwx.info

Track history (hours):
 
Tides and Currents Weather Stations Pressure Air Temp Water Temp Dewpoint Dewpoint Depression Visibility Wind Speed Wind Dir Waves Ship Positions

Gwendolyn Grace

Owner: MARINE EXPRESS, ALAMEDA, CA. More information available from US FCC via Universal Licensing System and Coast Guard Vessel Documentation Center.

Last reported at 2017-Oct-15 19:06 UTC. Time now 2017-Oct-18 20:31 UTC.
Position N 37°47' W 122°17'.

Length 18 m; draft 6 m.

Type: Pilot. MMSI: 366868850.

Date/timePositionNaut miles runAvg speedWind from/ knotsBaromVisibWave heightAir tempDewpointWater temp
2017-Oct-15 19:06N 37°47' W 122°17'0 0.8
2017-Oct-15 19:00N 37°47' W 122°17'4 7.1
2017-Oct-15 18:31N 37°48' W 122°22'2 4.2
2017-Oct-15 18:00N 37°49' W 122°24'0 0.0
2017-Oct-15 17:30N 37°49' W 122°24'0 0.0
2017-Oct-15 17:00N 37°49' W 122°24'0 1.0
2017-Oct-15 16:30N 37°48' W 122°24'4 7.4
2017-Oct-15 16:00N 37°48' W 122°19'2 3.1
2017-Oct-15 15:30N 37°47' W 122°17'0 0.0
2017-Oct-15 15:00N 37°47' W 122°17'0 0.0
2017-Oct-13 23:03N 37°47' W 122°17'0 0.0
2017-Oct-13 23:00N 37°47' W 122°17'1 3.0
2017-Oct-13 22:30N 37°48' W 122°19'2 3.2
2017-Oct-13 22:00N 37°46' W 122°20'2 3.2
2017-Oct-13 21:30N 37°45' W 122°20'0 0.2
2017-Oct-13 21:00N 37°45' W 122°20'0 0.1
2017-Oct-13 20:30N 37°45' W 122°20'3 6.0
2017-Oct-13 20:00N 37°48' W 122°20'2 3.8
2017-Oct-13 19:30N 37°47' W 122°17'0 0.0
2017-Oct-13 19:00N 37°47' W 122°17'0 0.0
2017-Oct-12 21:49N 37°47' W 122°17'0 0.2
2017-Oct-12 21:30N 37°47' W 122°17'0 0.0
2017-Oct-12 21:00N 37°47' W 122°17'0 0.0
2017-Oct-12 18:23N 37°47' W 122°17'0 0.3
2017-Oct-12 18:01N 37°47' W 122°17'0 0.1
2017-Oct-12 17:31N 37°47' W 122°17'0 0.0
2017-Oct-12 01:21N 37°47' W 122°17'2 4.5
2017-Oct-12 01:00N 37°48' W 122°19'3 6.1
2017-Oct-12 00:30N 37°49' W 122°23'1 1.7
2017-Oct-12 00:00N 37°48' W 122°24'0 0.0
2017-Oct-11 23:31N 37°48' W 122°24'0 0.0
2017-Oct-11 23:00N 37°48' W 122°24'0 0.0
2017-Oct-11 22:30N 37°48' W 122°24'0 0.0
2017-Oct-11 22:01N 37°48' W 122°24'0 0.0
2017-Oct-11 21:31N 37°48' W 122°24'0 0.0
2017-Oct-11 21:00N 37°48' W 122°24'0 0.0
2017-Oct-11 20:30N 37°48' W 122°24'0 0.0
2017-Oct-11 20:00N 37°48' W 122°24'0 0.0
2017-Oct-11 19:31N 37°48' W 122°24'0 0.0
2017-Oct-11 19:01N 37°48' W 122°24'0 0.0
2017-Oct-11 18:30N 37°48' W 122°24'0 0.0
2017-Oct-11 18:00N 37°48' W 122°24'0 0.0
2017-Oct-11 17:31N 37°48' W 122°24'0 0.0
2017-Oct-11 17:00N 37°48' W 122°24'5 0.2
2017-Oct-10 17:47N 37°47' W 122°17'0 0.0
2017-Oct-10 17:30N 37°47' W 122°17'2 4.9
2017-Oct-10 17:00N 37°48' W 122°20'3 5.5
2017-Oct-10 16:30N 37°48' W 122°24'0 0.0
2017-Oct-10 16:00N 37°48' W 122°24'2 4.1
2017-Oct-10 15:30N 37°46' W 122°23'2 4.4
2017-Oct-10 15:00N 37°48' W 122°21'3 2.8
2017-Oct-10 14:00N 37°47' W 122°17'0 0.0
2017-Oct-09 00:39N 37°47' W 122°17'0 1.1
2017-Oct-09 00:31N 37°48' W 122°17'3 6.5
2017-Oct-09 00:01N 37°48' W 122°21'2 3.4
2017-Oct-08 23:30N 37°48' W 122°24'0 0.8
2017-Oct-08 23:00N 37°48' W 122°24'4 7.4
2017-Oct-08 22:31N 37°48' W 122°19'1 2.9
2017-Oct-08 22:01N 37°47' W 122°17'0 0.0
2017-Oct-08 17:19N 37°47' W 122°17'2 4.8
2017-Oct-08 17:01N 37°48' W 122°19'3 5.0
2017-Oct-08 16:30N 37°45' W 122°20'1 1.1
2017-Oct-08 16:00N 37°45' W 122°20'0 0.1
2017-Oct-08 15:30N 37°45' W 122°20'0 0.0
2017-Oct-08 15:01N 37°45' W 122°20'3 5.9
2017-Oct-08 14:30N 37°48' W 122°20'2 3.7
2017-Oct-08 14:01N 37°48' W 122°18'0 1.0
2017-Oct-08 13:30N 37°47' W 122°17'0 0.0
2017-Oct-08 01:28N 37°47' W 122°17'3 6.9
2017-Oct-08 01:01N 37°48' W 122°21'2 3.9
2017-Oct-08 00:31N 37°48' W 122°24'0 0.2
2017-Oct-08 00:01N 37°48' W 122°24'0 0.1
2017-Oct-07 23:31N 37°48' W 122°24'0 0.2
2017-Oct-07 23:00N 37°48' W 122°24'2 4.4
2017-Oct-07 22:31N 37°48' W 122°21'3 6.0
2017-Oct-07 22:00N 37°47' W 122°17'0 0.0
2017-Oct-07 21:30N 37°47' W 122°17'0 0.0
2017-Oct-07 21:00N 37°47' W 122°17'0 0.0
2017-Oct-07 20:30N 37°47' W 122°17'0 0.0
2017-Oct-07 20:01N 37°47' W 122°17'2 4.2
2017-Oct-07 19:30N 37°48' W 122°20'3 6.0
2017-Oct-07 19:00N 37°46' W 122°23'2 3.9
2017-Oct-07 18:30N 37°47' W 122°21'3 5.7
2017-Oct-07 18:01N 37°47' W 122°17'0 0.0
2017-Oct-07 17:31N 37°47' W 122°17'0 0.0
2017-Oct-07 17:01N 37°47' W 122°17'0 0.0
2017-Oct-07 00:35N 37°47' W 122°17'0 0.0
2017-Oct-07 00:30N 37°47' W 122°17'3 6.9
2017-Oct-07 00:00N 37°48' W 122°22'2 3.2
2017-Oct-06 23:30N 37°48' W 122°24'0 0.4
2017-Oct-06 23:01N 37°48' W 122°24'0 0.3
2017-Oct-06 22:30N 37°48' W 122°24'0 0.0
2017-Oct-06 22:00N 37°48' W 122°24'0 0.0
2017-Oct-06 21:30N 37°48' W 122°24'0 0.0
2017-Oct-06 21:00N 37°48' W 122°24'2 4.1
2017-Oct-06 20:30N 37°46' W 122°23'0 0.0
2017-Oct-06 20:00N 37°46' W 122°23'0 0.0
2017-Oct-06 19:30N 37°46' W 122°23'0 0.0
2017-Oct-06 19:00N 37°46' W 122°23'0 0.0
2017-Oct-06 18:30N 37°46' W 122°23'0 0.0
2017-Oct-06 18:00N 37°46' W 122°23'0 0.0
2017-Oct-06 17:30N 37°46' W 122°23'0 0.0
2017-Oct-06 17:00N 37°46' W 122°23'0 0.0
2017-Oct-06 16:30N 37°46' W 122°23'0 0.0
2017-Oct-06 16:00N 37°46' W 122°23'0 0.0
2017-Oct-06 15:30N 37°46' W 122°23'0 0.0
2017-Oct-06 15:00N 37°46' W 122°23'1 1.3
2017-Oct-06 14:30N 37°47' W 122°23'2 3.2
2017-Oct-06 14:00N 37°48' W 122°24'2 4.9
2017-Oct-06 13:30N 37°48' W 122°21'3 5.6
2017-Oct-06 13:00N 37°47' W 122°17'0 0.0
2017-Oct-06 00:21N 37°47' W 122°17'2 4.5
2017-Oct-06 00:01N 37°48' W 122°19'3 6.5
2017-Oct-05 23:30N 37°50' W 122°22'4 8.0
2017-Oct-05 23:00N 37°54' W 122°24'5 9.6
2017-Oct-05 22:30N 37°58' W 122°26'5 9.0
2017-Oct-05 21:59N 38°02' W 122°21'6 7.2
2017-Oct-05 21:07N 38°04' W 122°14'  
Track history (hours):
 
Tides and Currents Weather Stations Pressure Air Temp Water Temp Dewpoint Dewpoint Depression Visibility Wind Speed Wind Dir Waves Ship Positions

Gwendolyn Grace

Owner: MARINE EXPRESS, ALAMEDA, CA. More information available from US FCC via Universal Licensing System and Coast Guard Vessel Documentation Center.

Last reported at 2017-Oct-15 19:06 UTC. Time now 2017-Oct-18 20:31 UTC.
Position N 37°47' W 122°17'.

Length 18 m; draft 6 m.

Type: Pilot. MMSI: 366868850.

Date/timePositionNaut miles runAvg speedWind from/ knotsBaromVisibWave heightAir tempDewpointWater temp
2017-Oct-15 19:06N 37°47' W 122°17'0 0.8
2017-Oct-15 19:00N 37°47' W 122°17'4 7.1
2017-Oct-15 18:31N 37°48' W 122°22'2 4.2
2017-Oct-15 18:00N 37°49' W 122°24'0 0.0
2017-Oct-15 17:30N 37°49' W 122°24'0 0.0
2017-Oct-15 17:00N 37°49' W 122°24'0 1.0
2017-Oct-15 16:30N 37°48' W 122°24'4 7.4
2017-Oct-15 16:00N 37°48' W 122°19'2 3.1
2017-Oct-15 15:30N 37°47' W 122°17'0 0.0
2017-Oct-15 15:00N 37°47' W 122°17'0 0.0
2017-Oct-13 23:03N 37°47' W 122°17'0 0.0
2017-Oct-13 23:00N 37°47' W 122°17'1 3.0
2017-Oct-13 22:30N 37°48' W 122°19'2 3.2
2017-Oct-13 22:00N 37°46' W 122°20'2 3.2
2017-Oct-13 21:30N 37°45' W 122°20'0 0.2
2017-Oct-13 21:00N 37°45' W 122°20'0 0.1
2017-Oct-13 20:30N 37°45' W 122°20'3 6.0
2017-Oct-13 20:00N 37°48' W 122°20'2 3.8
2017-Oct-13 19:30N 37°47' W 122°17'0 0.0
2017-Oct-13 19:00N 37°47' W 122°17'0 0.0
2017-Oct-12 21:49N 37°47' W 122°17'0 0.2
2017-Oct-12 21:30N 37°47' W 122°17'0 0.0
2017-Oct-12 21:00N 37°47' W 122°17'0 0.0
2017-Oct-12 18:23N 37°47' W 122°17'0 0.3
2017-Oct-12 18:01N 37°47' W 122°17'0 0.1
2017-Oct-12 17:31N 37°47' W 122°17'0 0.0
2017-Oct-12 01:21N 37°47' W 122°17'2 4.5
2017-Oct-12 01:00N 37°48' W 122°19'3 6.1
2017-Oct-12 00:30N 37°49' W 122°23'1 1.7
2017-Oct-12 00:00N 37°48' W 122°24'0 0.0
2017-Oct-11 23:31N 37°48' W 122°24'0 0.0
2017-Oct-11 23:00N 37°48' W 122°24'0 0.0
2017-Oct-11 22:30N 37°48' W 122°24'0 0.0
2017-Oct-11 22:01N 37°48' W 122°24'0 0.0
2017-Oct-11 21:31N 37°48' W 122°24'0 0.0
2017-Oct-11 21:00N 37°48' W 122°24'0 0.0
2017-Oct-11 20:30N 37°48' W 122°24'0 0.0
2017-Oct-11 20:00N 37°48' W 122°24'0 0.0
2017-Oct-11 19:31N 37°48' W 122°24'0 0.0
2017-Oct-11 19:01N 37°48' W 122°24'0 0.0
2017-Oct-11 18:30N 37°48' W 122°24'0 0.0
2017-Oct-11 18:00N 37°48' W 122°24'0 0.0
2017-Oct-11 17:31N 37°48' W 122°24'0 0.0
2017-Oct-11 17:00N 37°48' W 122°24'5 0.2
2017-Oct-10 17:47N 37°47' W 122°17'0 0.0
2017-Oct-10 17:30N 37°47' W 122°17'2 4.9
2017-Oct-10 17:00N 37°48' W 122°20'3 5.5
2017-Oct-10 16:30N 37°48' W 122°24'0 0.0
2017-Oct-10 16:00N 37°48' W 122°24'2 4.1
2017-Oct-10 15:30N 37°46' W 122°23'2 4.4
2017-Oct-10 15:00N 37°48' W 122°21'3 2.8
2017-Oct-10 14:00N 37°47' W 122°17'0 0.0
2017-Oct-09 00:39N 37°47' W 122°17'0 1.1
2017-Oct-09 00:31N 37°48' W 122°17'3 6.5
2017-Oct-09 00:01N 37°48' W 122°21'2 3.4
2017-Oct-08 23:30N 37°48' W 122°24'0 0.8
2017-Oct-08 23:00N 37°48' W 122°24'4 7.4
2017-Oct-08 22:31N 37°48' W 122°19'1 2.9
2017-Oct-08 22:01N 37°47' W 122°17'0 0.0
2017-Oct-08 17:19N 37°47' W 122°17'2 4.8
2017-Oct-08 17:01N 37°48' W 122°19'3 5.0
2017-Oct-08 16:30N 37°45' W 122°20'1 1.1
2017-Oct-08 16:00N 37°45' W 122°20'0 0.1
2017-Oct-08 15:30N 37°45' W 122°20'0 0.0
2017-Oct-08 15:01N 37°45' W 122°20'3 5.9
2017-Oct-08 14:30N 37°48' W 122°20'2 3.7
2017-Oct-08 14:01N 37°48' W 122°18'0 1.0
2017-Oct-08 13:30N 37°47' W 122°17'0 0.0
2017-Oct-08 01:28N 37°47' W 122°17'3 6.9
2017-Oct-08 01:01N 37°48' W 122°21'2 3.9
2017-Oct-08 00:31N 37°48' W 122°24'0 0.2
2017-Oct-08 00:01N 37°48' W 122°24'0 0.1
2017-Oct-07 23:31N 37°48' W 122°24'0 0.2
2017-Oct-07 23:00N 37°48' W 122°24'2 4.4
2017-Oct-07 22:31N 37°48' W 122°21'3 6.0
2017-Oct-07 22:00N 37°47' W 122°17'0 0.0
2017-Oct-07 21:30N 37°47' W 122°17'0 0.0
2017-Oct-07 21:00N 37°47' W 122°17'0 0.0
2017-Oct-07 20:30N 37°47' W 122°17'0 0.0
2017-Oct-07 20:01N 37°47' W 122°17'2 4.2
2017-Oct-07 19:30N 37°48' W 122°20'3 6.0
2017-Oct-07 19:00N 37°46' W 122°23'2 3.9
2017-Oct-07 18:30N 37°47' W 122°21'3 5.7
2017-Oct-07 18:01N 37°47' W 122°17'0 0.0
2017-Oct-07 17:31N 37°47' W 122°17'0 0.0
2017-Oct-07 17:01N 37°47' W 122°17'0 0.0
2017-Oct-07 00:35N 37°47' W 122°17'0 0.0
2017-Oct-07 00:30N 37°47' W 122°17'3 6.9
2017-Oct-07 00:00N 37°48' W 122°22'2 3.2
2017-Oct-06 23:30N 37°48' W 122°24'0 0.4
2017-Oct-06 23:01N 37°48' W 122°24'0 0.3
2017-Oct-06 22:30N 37°48' W 122°24'0 0.0
2017-Oct-06 22:00N 37°48' W 122°24'0 0.0
2017-Oct-06 21:30N 37°48' W 122°24'0 0.0
2017-Oct-06 21:00N 37°48' W 122°24'2 4.1
2017-Oct-06 20:30N 37°46' W 122°23'0 0.0
2017-Oct-06 20:00N 37°46' W 122°23'0 0.0
2017-Oct-06 19:30N 37°46' W 122°23'0 0.0
2017-Oct-06 19:00N 37°46' W 122°23'0 0.0
2017-Oct-06 18:30N 37°46' W 122°23'0 0.0
2017-Oct-06 18:00N 37°46' W 122°23'0 0.0
2017-Oct-06 17:30N 37°46' W 122°23'0 0.0
2017-Oct-06 17:00N 37°46' W 122°23'0 0.0
2017-Oct-06 16:30N 37°46' W 122°23'0 0.0
2017-Oct-06 16:00N 37°46' W 122°23'0 0.0
2017-Oct-06 15:30N 37°46' W 122°23'0 0.0
2017-Oct-06 15:00N 37°46' W 122°23'1 1.3
2017-Oct-06 14:30N 37°47' W 122°23'2 3.2
2017-Oct-06 14:00N 37°48' W 122°24'2 4.9
2017-Oct-06 13:30N 37°48' W 122°21'3 5.6
2017-Oct-06 13:00N 37°47' W 122°17'0 0.0
2017-Oct-06 00:21N 37°47' W 122°17'2 4.5
2017-Oct-06 00:01N 37°48' W 122°19'3 6.5
2017-Oct-05 23:30N 37°50' W 122°22'4 8.0
2017-Oct-05 23:00N 37°54' W 122°24'5 9.6
2017-Oct-05 22:30N 37°58' W 122°26'5 9.0
2017-Oct-05 21:59N 38°02' W 122°21'6 7.2
2017-Oct-05 21:07N 38°04' W 122°14'  

Dump ship's entire track history